Time;durP1;ratioP1;P1;durP2;ratioP2;P2;SDS_P1;SDS_P2;PMS_P1;PMS_P2;Temp;Humidity;BMP_temperature;BMP_pressure;BME280_temperature;BME280_humidity;BME280_pressure;Samples;Min_cycle;Max_cycle;Signal;HPM_P1;HPM_P2
2022/12/30 00:00:36;;;;;;;502.43;123.43;;;;;;;;;;4972345;28;20307;-52
2022/12/30 00:03:03;;;;;;;415.23;104.77;;;;;;;;;;4969973;28;20292;-51
2022/12/30 00:05:30;;;;;;;539.57;140.67;;;;;;;;;;4963899;28;20271;-51
2022/12/30 00:07:57;;;;;;;538.10;142.77;;;;;;;;;;4976497;28;20514;-54
2022/12/30 00:10:23;;;;;;;515.47;130.77;;;;;;;;;;4967284;28;20196;-51
2022/12/30 00:34:50;;;;;;;482.30;123.07;;;;;;;;;;4970846;28;20599;-52
2022/12/30 00:37:16;;;;;;;442.20;106.83;;;;;;;;;;4986468;28;20264;-53
2022/12/30 00:39:42;;;;;;;433.90;103.87;;;;;;;;;;4971833;28;20216;-52
2022/12/30 00:44:53;;;;;;;474.30;122.40;;;;;;;;;;4977857;28;20235;-53
2022/12/30 00:47:20;;;;;;;493.17;131.00;;;;;;;;;;4954890;28;20216;-52
2022/12/30 00:58:02;;;;;;;430.70;101.13;;;;;;;;;;4971412;28;20248;-52
2022/12/30 01:00:28;;;;;;;502.57;126.83;;;;;;;;;;4958936;28;20278;-54
2022/12/30 01:02:55;;;;;;;482.80;123.20;;;;;;;;;;4953441;28;20390;-51
2022/12/30 01:05:25;;;;;;;515.33;134.37;;;;;;;;;;4972329;28;20313;-52
2022/12/30 01:07:51;;;;;;;468.53;113.43;;;;;;;;;;4973948;28;20270;-51
2022/12/30 01:10:18;;;;;;;474.67;117.87;;;;;;;;;;4979513;28;20233;-51
2022/12/30 01:12:44;;;;;;;459.77;107.73;;;;;;;;;;4995929;28;20289;-51
2022/12/30 01:15:10;;;;;;;457.93;109.27;;;;;;;;;;4985787;28;20247;-52
2022/12/30 01:17:37;;;;;;;471.80;115.53;;;;;;;;;;4983448;28;20591;-51
2022/12/30 01:20:04;;;;;;;557.50;147.07;;;;;;;;;;4989044;28;20594;-51
2022/12/30 01:22:31;;;;;;;458.33;117.97;;;;;;;;;;4979728;28;20300;-51
2022/12/30 01:24:58;;;;;;;460.47;115.30;;;;;;;;;;4970360;28;20319;-51
2022/12/30 01:27:24;;;;;;;450.50;111.40;;;;;;;;;;4966289;28;20228;-51
2022/12/30 01:29:51;;;;;;;454.10;108.57;;;;;;;;;;4961888;28;20213;-51
2022/12/30 01:32:21;;;;;;;534.00;133.33;;;;;;;;;;4973922;28;20216;-52
2022/12/30 01:34:47;;;;;;;510.60;128.27;;;;;;;;;;4967699;28;20273;-51
2022/12/30 01:37:14;;;;;;;504.53;123.43;;;;;;;;;;4956975;28;20185;-51
2022/12/30 01:39:41;;;;;;;517.20;125.77;;;;;;;;;;4975160;28;20213;-51
2022/12/30 01:42:24;;;;;;;520.97;137.77;;;;;;;;;;4976236;28;20232;-52
2022/12/30 01:44:50;;;;;;;459.63;113.07;;;;;;;;;;4961055;28;20529;-52
2022/12/30 01:47:35;;;;;;;544.07;140.33;;;;;;;;;;4976616;28;20209;-52
2022/12/30 01:50:10;;;;;;;502.57;124.70;;;;;;;;;;4969973;28;20236;-53
2022/12/30 01:52:38;;;;;;;464.07;111.77;;;;;;;;;;4971520;28;20820;-51
2022/12/30 01:55:11;;;;;;;448.67;114.97;;;;;;;;;;4966906;28;20387;-52
2022/12/30 01:57:39;;;;;;;500.70;132.90;;;;;;;;;;4971838;28;20225;-52
2022/12/30 02:00:07;;;;;;;469.27;119.00;;;;;;;;;;4956877;28;20246;-51
2022/12/30 02:02:34;;;;;;;508.03;126.13;;;;;;;;;;4986128;28;20287;-52
2022/12/30 02:05:00;;;;;;;500.20;123.73;;;;;;;;;;4963685;28;21275;-53
2022/12/30 02:07:29;;;;;;;461.70;114.17;;;;;;;;;;4974373;28;20516;-51
2022/12/30 02:09:56;;;;;;;411.23;95.63;;;;;;;;;;4968823;28;20329;-52
2022/12/30 02:12:23;;;;;;;514.60;128.77;;;;;;;;;;4974444;28;21177;-52
2022/12/30 02:14:50;;;;;;;449.30;102.53;;;;;;;;;;4975089;28;20212;-52
2022/12/30 02:17:17;;;;;;;463.40;113.97;;;;;;;;;;4995186;28;20227;-52
2022/12/30 02:20:08;;;;;;;464.57;109.33;;;;;;;;;;4985594;28;20630;-52
2022/12/30 02:22:53;;;;;;;426.63;100.13;;;;;;;;;;4987849;28;20601;-52
2022/12/30 02:25:38;;;;;;;505.03;124.30;;;;;;;;;;4969087;28;21800;-51
2022/12/30 02:28:04;;;;;;;503.77;125.63;;;;;;;;;;4980562;28;20216;-52
2022/12/30 02:30:53;;;;;;;551.30;138.80;;;;;;;;;;4971888;28;20428;-52
2022/12/30 02:33:38;;;;;;;508.30;119.93;;;;;;;;;;4965150;28;20225;-52
2022/12/30 02:36:08;;;;;;;452.10;113.67;;;;;;;;;;4971566;28;20259;-52
2022/12/30 02:38:35;;;;;;;501.27;125.37;;;;;;;;;;4972955;28;20213;-52
2022/12/30 02:46:44;;;;;;;479.00;117.97;;;;;;;;;;4973009;28;20192;-50
2022/12/30 02:49:11;;;;;;;483.90;123.23;;;;;;;;;;4982468;28;20195;-51
2022/12/30 02:54:24;;;;;;;546.93;136.83;;;;;;;;;;4979449;28;20422;-50
2022/12/30 02:56:51;;;;;;;515.60;132.30;;;;;;;;;;4955735;28;20225;-51
2022/12/30 03:05:00;;;;;;;444.27;105.63;;;;;;;;;;4979378;28;20671;-51
2022/12/30 03:07:37;;;;;;;471.80;116.33;;;;;;;;;;4976116;28;20218;-51
2022/12/30 03:12:52;;;;;;;440.03;103.73;;;;;;;;;;4981575;28;20323;-52
2022/12/30 03:15:20;;;;;;;509.27;126.40;;;;;;;;;;4980219;28;20240;-51
2022/12/30 03:17:55;;;;;;;468.93;112.17;;;;;;;;;;4963425;28;20305;-51
2022/12/30 03:20:23;;;;;;;485.57;121.27;;;;;;;;;;4981587;28;20464;-51
2022/12/30 03:28:27;;;;;;;493.27;126.90;;;;;;;;;;4969414;28;20223;-51
2022/12/30 03:31:01;;;;;;;479.20;112.87;;;;;;;;;;4977770;28;20289;-51
2022/12/30 03:33:31;;;;;;;478.77;124.60;;;;;;;;;;4977122;28;20248;-51
2022/12/30 03:36:02;;;;;;;487.70;121.10;;;;;;;;;;4979933;28;20286;-51
2022/12/30 03:38:37;;;;;;;507.73;125.53;;;;;;;;;;4948845;28;20243;-51
2022/12/30 03:41:06;;;;;;;458.33;108.03;;;;;;;;;;4980814;28;20711;-52
2022/12/30 03:43:33;;;;;;;486.33;122.03;;;;;;;;;;4979411;28;20190;-51
2022/12/30 03:45:59;;;;;;;477.43;119.00;;;;;;;;;;4982593;28;20187;-52
2022/12/30 03:48:25;;;;;;;532.53;135.23;;;;;;;;;;4971128;28;20224;-51
2022/12/30 03:50:51;;;;;;;464.67;113.27;;;;;;;;;;4974193;28;20429;-51
2022/12/30 03:53:18;;;;;;;444.63;108.63;;;;;;;;;;4984067;28;20242;-52
2022/12/30 03:55:44;;;;;;;437.33;112.33;;;;;;;;;;4971890;28;20231;-52
2022/12/30 03:58:11;;;;;;;567.43;147.33;;;;;;;;;;4978911;28;20184;-51
2022/12/30 04:00:37;;;;;;;414.90;101.50;;;;;;;;;;4987775;28;20308;-51
2022/12/30 04:03:03;;;;;;;508.20;124.80;;;;;;;;;;4973638;28;20269;-51
2022/12/30 04:05:29;;;;;;;677.50;158.80;;;;;;;;;;4996570;23;20249;-55
2022/12/30 04:07:56;;;;;;;449.37;95.43;;;;;;;;;;4972445;28;20247;-56
2022/12/30 04:10:22;;;;;;;498.77;115.00;;;;;;;;;;4978202;28;22429;-55
2022/12/30 04:12:48;;;;;;;399.90;83.50;;;;;;;;;;4980737;28;20212;-55
2022/12/30 04:15:14;;;;;;;521.20;116.47;;;;;;;;;;4978070;28;20232;-54
2022/12/30 04:17:40;;;;;;;389.10;82.67;;;;;;;;;;4975305;28;20670;-54
2022/12/30 04:20:06;;;;;;;459.03;99.63;;;;;;;;;;4976823;28;20365;-56
2022/12/30 04:22:32;;;;;;;489.57;99.80;;;;;;;;;;4978200;28;20695;-54
2022/12/30 04:25:04;;;;;;;384.07;77.40;;;;;;;;;;4978929;28;20183;-55
2022/12/30 04:27:30;;;;;;;550.23;120.80;;;;;;;;;;4959224;28;20760;-55
2022/12/30 04:29:56;;;;;;;534.23;121.97;;;;;;;;;;4982437;28;20270;-55
2022/12/30 04:32:22;;;;;;;554.00;125.60;;;;;;;;;;4966477;28;20364;-54
2022/12/30 04:34:48;;;;;;;597.67;140.90;;;;;;;;;;4966309;28;20193;-54
2022/12/30 04:37:14;;;;;;;602.37;141.67;;;;;;;;;;4971562;28;20185;-54
2022/12/30 04:39:40;;;;;;;443.73;95.97;;;;;;;;;;4977693;28;20220;-54
2022/12/30 04:42:06;;;;;;;511.80;108.80;;;;;;;;;;4962553;28;20418;-55
2022/12/30 04:44:32;;;;;;;592.53;130.83;;;;;;;;;;4960677;28;20496;-55
2022/12/30 04:46:58;;;;;;;524.33;112.07;;;;;;;;;;4965913;28;20270;-55
2022/12/30 04:49:24;;;;;;;701.53;166.53;;;;;;;;;;4960573;28;20185;-55
2022/12/30 04:51:51;;;;;;;526.53;113.87;;;;;;;;;;4973821;28;20223;-55
2022/12/30 04:54:17;;;;;;;521.13;112.23;;;;;;;;;;4971019;28;20248;-55
2022/12/30 04:56:43;;;;;;;472.47;103.17;;;;;;;;;;4970782;28;20220;-54
2022/12/30 04:59:09;;;;;;;590.47;137.50;;;;;;;;;;4973048;28;20212;-54
2022/12/30 05:01:35;;;;;;;587.97;123.87;;;;;;;;;;4973525;28;20307;-55
2022/12/30 05:04:01;;;;;;;668.27;159.07;;;;;;;;;;4959975;28;20193;-55
2022/12/30 05:06:27;;;;;;;525.57;113.93;;;;;;;;;;4981189;28;20482;-54
2022/12/30 05:08:53;;;;;;;468.27;100.47;;;;;;;;;;4967170;28;20864;-54
2022/12/30 05:11:19;;;;;;;442.10;91.47;;;;;;;;;;4959147;28;20257;-55
2022/12/30 05:13:45;;;;;;;607.07;135.07;;;;;;;;;;4970892;28;20192;-54
2022/12/30 05:16:11;;;;;;;519.60;113.13;;;;;;;;;;4967643;28;20189;-54
2022/12/30 05:18:37;;;;;;;565.83;114.43;;;;;;;;;;4966120;28;20243;-55
2022/12/30 05:21:03;;;;;;;555.40;123.03;;;;;;;;;;4967584;28;20357;-54
2022/12/30 05:26:15;;;;;;;578.77;130.37;;;;;;;;;;4977725;28;20503;-54
2022/12/30 05:28:42;;;;;;;579.40;130.50;;;;;;;;;;4953263;28;20190;-54
2022/12/30 05:31:08;;;;;;;495.93;107.63;;;;;;;;;;4971439;28;20426;-54
2022/12/30 05:33:34;;;;;;;463.50;99.03;;;;;;;;;;4970868;28;20286;-54
2022/12/30 05:36:00;;;;;;;466.30;99.97;;;;;;;;;;4978619;28;20263;-55
2022/12/30 05:38:27;;;;;;;415.93;81.33;;;;;;;;;;4965781;28;20693;-54
2022/12/30 05:40:53;;;;;;;539.07;121.60;;;;;;;;;;4975391;28;20642;-55
2022/12/30 05:43:19;;;;;;;551.60;111.60;;;;;;;;;;4974006;28;20204;-54
2022/12/30 05:45:45;;;;;;;487.87;105.03;;;;;;;;;;4966488;28;20223;-55
2022/12/30 05:48:11;;;;;;;533.17;118.17;;;;;;;;;;4961366;28;20220;-54
2022/12/30 05:50:37;;;;;;;487.13;102.63;;;;;;;;;;4963609;28;20354;-55
2022/12/30 05:53:04;;;;;;;493.23;107.60;;;;;;;;;;4964951;28;20216;-54
2022/12/30 05:55:30;;;;;;;640.60;149.83;;;;;;;;;;4970824;28;20181;-55
2022/12/30 05:57:56;;;;;;;458.23;87.47;;;;;;;;;;4974163;28;20493;-55
2022/12/30 06:00:22;;;;;;;528.90;107.83;;;;;;;;;;4975785;28;20875;-54
2022/12/30 06:02:48;;;;;;;486.70;101.17;;;;;;;;;;4977439;28;20468;-55
2022/12/30 06:05:14;;;;;;;542.20;114.50;;;;;;;;;;4972142;28;20221;-55
2022/12/30 06:07:40;;;;;;;537.27;113.60;;;;;;;;;;4966303;28;20698;-55
2022/12/30 06:10:07;;;;;;;688.77;158.60;;;;;;;;;;4968228;28;20300;-54
2022/12/30 06:12:33;;;;;;;508.70;112.30;;;;;;;;;;4968468;28;20219;-54
2022/12/30 06:15:00;;;;;;;446.07;90.03;;;;;;;;;;4975387;28;20262;-54
2022/12/30 06:17:26;;;;;;;567.20;122.33;;;;;;;;;;4972677;28;20296;-54
2022/12/30 06:19:52;;;;;;;562.03;118.40;;;;;;;;;;4960578;28;21136;-54
2022/12/30 06:22:21;;;;;;;575.53;125.07;;;;;;;;;;4977335;28;20245;-54
2022/12/30 06:24:47;;;;;;;484.73;98.63;;;;;;;;;;4962037;28;20466;-54
2022/12/30 06:27:13;;;;;;;520.43;115.10;;;;;;;;;;4974832;28;20652;-54
2022/12/30 06:29:39;;;;;;;537.27;109.00;;;;;;;;;;4966940;28;20217;-54
2022/12/30 06:32:05;;;;;;;539.17;115.27;;;;;;;;;;4965387;28;20468;-55
2022/12/30 06:34:31;;;;;;;525.73;107.53;;;;;;;;;;4953572;28;20182;-54
2022/12/30 06:37:00;;;;;;;513.53;113.37;;;;;;;;;;4981336;28;20212;-55
2022/12/30 06:39:26;;;;;;;520.17;104.07;;;;;;;;;;4972353;28;20688;-55
2022/12/30 06:41:52;;;;;;;481.87;102.47;;;;;;;;;;4979842;28;20220;-55
2022/12/30 06:44:18;;;;;;;617.63;129.57;;;;;;;;;;4968120;28;20279;-53
2022/12/30 06:46:45;;;;;;;507.27;105.17;;;;;;;;;;4974215;28;20519;-55
2022/12/30 06:49:11;;;;;;;555.97;116.30;;;;;;;;;;4969885;28;20515;-55
2022/12/30 06:51:37;;;;;;;561.33;113.63;;;;;;;;;;4979804;28;20832;-54
2022/12/30 06:54:06;;;;;;;545.13;111.00;;;;;;;;;;4991776;28;20228;-54
2022/12/30 06:56:32;;;;;;;573.83;117.90;;;;;;;;;;4960250;28;20323;-54
2022/12/30 06:58:58;;;;;;;506.67;101.20;;;;;;;;;;4975488;28;20227;-55
2022/12/30 07:01:27;;;;;;;477.60;94.57;;;;;;;;;;4976519;28;20562;-55
2022/12/30 07:03:53;;;;;;;507.37;104.60;;;;;;;;;;4974060;28;20384;-55
2022/12/30 07:06:22;;;;;;;579.60;120.83;;;;;;;;;;4974486;28;20224;-55
2022/12/30 07:08:48;;;;;;;456.30;87.53;;;;;;;;;;4987590;28;20264;-55
2022/12/30 07:11:14;;;;;;;559.47;118.60;;;;;;;;;;4974576;28;20748;-55
2022/12/30 07:13:40;;;;;;;565.50;117.37;;;;;;;;;;4976836;28;20183;-56
2022/12/30 07:16:07;;;;;;;607.23;123.27;;;;;;;;;;4965292;28;20551;-55
2022/12/30 07:18:33;;;;;;;598.53;129.47;;;;;;;;;;4957044;28;20220;-54
2022/12/30 07:20:59;;;;;;;610.77;134.00;;;;;;;;;;4966080;28;20219;-55
2022/12/30 07:23:25;;;;;;;510.03;103.00;;;;;;;;;;4975576;28;20256;-54
2022/12/30 07:25:51;;;;;;;619.70;139.07;;;;;;;;;;4923126;28;21709;-54
2022/12/30 07:28:17;;;;;;;664.87;151.40;;;;;;;;;;4944099;28;20185;-55
2022/12/30 07:30:43;;;;;;;553.77;120.03;;;;;;;;;;4958151;28;20222;-54
2022/12/30 07:33:10;;;;;;;766.33;185.67;;;;;;;;;;4947116;28;20233;-54
2022/12/30 07:35:36;;;;;;;490.60;103.00;;;;;;;;;;4971188;28;20212;-55
2022/12/30 07:38:02;;;;;;;606.73;135.40;;;;;;;;;;4958991;28;21215;-54
2022/12/30 07:40:28;;;;;;;512.30;99.93;;;;;;;;;;4968131;28;20177;-55
2022/12/30 07:42:54;;;;;;;696.50;158.80;;;;;;;;;;4952661;28;20240;-56
2022/12/30 07:45:20;;;;;;;550.87;118.90;;;;;;;;;;4967514;28;20229;-55
2022/12/30 07:47:46;;;;;;;556.87;115.60;;;;;;;;;;4948390;28;20252;-55
2022/12/30 07:50:12;;;;;;;711.57;171.20;;;;;;;;;;4958097;28;20436;-54
2022/12/30 07:52:39;;;;;;;793.70;207.97;;;;;;;;;;4960334;28;20216;-54
2022/12/30 07:55:05;;;;;;;619.37;128.03;;;;;;;;;;4940028;28;20939;-54
2022/12/30 07:57:32;;;;;;;647.70;143.47;;;;;;;;;;4950177;28;20209;-56
2022/12/30 07:59:57;;;;;;;540.43;165.07;;;;;;;;;;4944147;28;20419;-54
2022/12/30 08:02:24;;;;;;;525.93;117.20;;;;;;;;;;4962948;28;20733;-56
2022/12/30 08:04:53;;;;;;;581.97;132.93;;;;;;;;;;4950254;28;20420;-54
2022/12/30 08:07:19;;;;;;;595.83;128.30;;;;;;;;;;4957576;28;20201;-53
2022/12/30 08:09:45;;;;;;;699.70;164.87;;;;;;;;;;4942484;28;20217;-54
2022/12/30 08:12:11;;;;;;;646.60;145.73;;;;;;;;;;4942391;28;21451;-55
2022/12/30 08:14:37;;;;;;;510.93;99.80;;;;;;;;;;4978262;28;20779;-55
2022/12/30 08:17:03;;;;;;;433.80;83.80;;;;;;;;;;4983519;28;20705;-55
2022/12/30 08:19:30;;;;;;;589.30;132.10;;;;;;;;;;4969956;28;20189;-54
2022/12/30 08:21:56;;;;;;;457.13;87.47;;;;;;;;;;4960176;28;20292;-55
2022/12/30 08:24:22;;;;;;;640.33;147.83;;;;;;;;;;4972604;28;20773;-55
2022/12/30 08:26:49;;;;;;;572.67;118.00;;;;;;;;;;4957840;28;20220;-54
2022/12/30 08:29:18;;;;;;;530.00;107.13;;;;;;;;;;4964003;28;20332;-54
2022/12/30 08:31:49;;;;;;;529.13;110.10;;;;;;;;;;4962460;28;20209;-54
2022/12/30 08:34:16;;;;;;;544.83;112.50;;;;;;;;;;4955317;28;20181;-55
2022/12/30 08:36:42;;;;;;;547.30;121.90;;;;;;;;;;4967052;28;20304;-54
2022/12/30 08:39:08;;;;;;;642.63;143.03;;;;;;;;;;4961694;28;21390;-54
2022/12/30 08:41:35;;;;;;;471.53;91.10;;;;;;;;;;4968071;28;20391;-55
2022/12/30 08:44:02;;;;;;;495.67;97.37;;;;;;;;;;4968455;28;20494;-54
2022/12/30 08:46:29;;;;;;;547.17;125.10;;;;;;;;;;4968059;28;20651;-53
2022/12/30 08:48:55;;;;;;;475.77;100.57;;;;;;;;;;4972066;28;20315;-55
2022/12/30 08:51:21;;;;;;;588.40;131.80;;;;;;;;;;4974155;28;22259;-55
2022/12/30 08:53:47;;;;;;;527.53;119.67;;;;;;;;;;4969559;28;20221;-54
2022/12/30 08:56:14;;;;;;;460.63;94.77;;;;;;;;;;4966091;28;20223;-54
2022/12/30 08:58:40;;;;;;;546.40;120.63;;;;;;;;;;4966968;28;20646;-53
2022/12/30 09:01:10;;;;;;;641.30;138.23;;;;;;;;;;4978748;28;20181;-53
2022/12/30 09:03:37;;;;;;;584.73;123.03;;;;;;;;;;4973684;28;20216;-52
2022/12/30 09:06:03;;;;;;;518.30;105.33;;;;;;;;;;4962304;28;20673;-52
2022/12/30 09:08:29;;;;;;;605.80;133.00;;;;;;;;;;4968841;28;20252;-53
2022/12/30 09:11:05;;;;;;;530.33;109.10;;;;;;;;;;4981150;28;20216;-52
2022/12/30 09:13:32;;;;;;;672.17;150.20;;;;;;;;;;4964204;28;20650;-54
2022/12/30 09:15:58;;;;;;;559.23;117.87;;;;;;;;;;4975403;28;20259;-54
2022/12/30 09:18:24;;;;;;;549.43;119.03;;;;;;;;;;4968589;28;20683;-54
2022/12/30 09:20:50;;;;;;;493.20;104.03;;;;;;;;;;4969792;28;20622;-54
2022/12/30 09:23:16;;;;;;;593.37;122.77;;;;;;;;;;4982330;28;20311;-56
2022/12/30 09:25:43;;;;;;;474.30;95.90;;;;;;;;;;4976829;28;20193;-54
2022/12/30 09:28:09;;;;;;;707.87;167.47;;;;;;;;;;4962758;28;20189;-54
2022/12/30 09:30:35;;;;;;;677.60;160.33;;;;;;;;;;4956406;28;20228;-53
2022/12/30 09:33:01;;;;;;;526.00;109.83;;;;;;;;;;4968049;28;20353;-54
2022/12/30 09:35:27;;;;;;;603.80;139.50;;;;;;;;;;4954265;28;20271;-56
2022/12/30 09:37:53;;;;;;;653.77;151.07;;;;;;;;;;4952551;28;20228;-54
2022/12/30 09:40:44;;;;;;;636.10;139.90;;;;;;;;;;4943379;28;20201;-54
2022/12/30 09:43:26;;;;;;;598.57;130.90;;;;;;;;;;4967660;28;20661;-54
2022/12/30 09:46:12;;;;;;;545.20;116.90;;;;;;;;;;4956995;28;20701;-53
2022/12/30 09:48:41;;;;;;;541.90;112.87;;;;;;;;;;4970284;28;20255;-54
2022/12/30 09:51:11;;;;;;;584.03;127.93;;;;;;;;;;4955819;28;20625;-55
2022/12/30 09:53:56;;;;;;;632.17;142.10;;;;;;;;;;4948067;28;20303;-54
2022/12/30 09:56:22;;;;;;;592.47;130.97;;;;;;;;;;4945313;28;20244;-54
2022/12/30 09:58:48;;;;;;;637.17;143.20;;;;;;;;;;4933730;28;20192;-55
2022/12/30 10:01:24;;;;;;;572.97;126.93;;;;;;;;;;4949166;28;20267;-56
2022/12/30 10:03:58;;;;;;;521.03;107.73;;;;;;;;;;4964548;28;20222;-54
2022/12/30 10:06:43;;;;;;;487.67;126.70;;;;;;;;;;4997488;23;20251;-49
2022/12/30 10:09:24;;;;;;;574.93;156.23;;;;;;;;;;4977788;28;20219;-51
2022/12/30 10:11:55;;;;;;;472.80;127.30;;;;;;;;;;4973453;28;20224;-52
2022/12/30 10:14:31;;;;;;;526.33;136.23;;;;;;;;;;4967225;28;20229;-50
2022/12/30 10:17:01;;;;;;;441.03;110.30;;;;;;;;;;4957385;28;20390;-50
2022/12/30 10:19:27;;;;;;;445.00;112.53;;;;;;;;;;4965908;28;20339;-50
2022/12/30 10:22:04;;;;;;;441.57;108.97;;;;;;;;;;4963046;28;20245;-51
2022/12/30 10:24:56;;;;;;;545.33;140.50;;;;;;;;;;4934429;28;20534;-51
2022/12/30 10:27:31;;;;;;;380.67;94.03;;;;;;;;;;4972732;28;20299;-50
2022/12/30 10:29:57;;;;;;;452.83;109.97;;;;;;;;;;4978748;28;20223;-50
2022/12/30 10:32:26;;;;;;;439.90;104.30;;;;;;;;;;4984375;28;20260;-51
2022/12/30 10:34:59;;;;;;;554.00;144.80;;;;;;;;;;5000657;28;20546;-51
2022/12/30 10:37:36;;;;;;;473.47;109.57;;;;;;;;;;4973305;28;20200;-50
2022/12/30 10:40:08;;;;;;;444.97;107.60;;;;;;;;;;4984449;28;20206;-50
2022/12/30 10:42:34;;;;;;;523.40;132.33;;;;;;;;;;4972290;28;20351;-50
2022/12/30 10:45:12;;;;;;;528.13;130.63;;;;;;;;;;4974810;28;20249;-50
2022/12/30 10:47:46;;;;;;;420.57;98.13;;;;;;;;;;4979908;28;20221;-50
2022/12/30 10:50:31;;;;;;;687.93;207.13;;;;;;;;;;4959027;28;22296;-49
2022/12/30 10:52:58;;;;;;;633.90;186.13;;;;;;;;;;4948250;28;20327;-49
2022/12/30 10:55:28;;;;;;;536.07;139.80;;;;;;;;;;4949827;28;20189;-49
2022/12/30 10:57:59;;;;;;;567.03;146.23;;;;;;;;;;4946979;28;20679;-52
2022/12/30 11:00:25;;;;;;;502.60;128.90;;;;;;;;;;4947174;28;20569;-50
2022/12/30 11:03:00;;;;;;;601.93;163.20;;;;;;;;;;4959837;28;20272;-51
2022/12/30 11:05:28;;;;;;;507.20;138.63;;;;;;;;;;4949314;28;20273;-50
2022/12/30 11:07:55;;;;;;;574.57;153.77;;;;;;;;;;4956069;28;20233;-52
2022/12/30 11:10:21;;;;;;;505.83;132.10;;;;;;;;;;4953567;28;20209;-50
2022/12/30 11:15:48;;;;;;;583.07;158.50;;;;;;;;;;4960658;28;20261;-52
2022/12/30 11:18:15;;;;;;;570.30;148.33;;;;;;;;;;4956375;28;20548;-52
2022/12/30 11:20:42;;;;;;;644.27;182.20;;;;;;;;;;4936804;28;20206;-50
2022/12/30 11:23:25;;;;;;;544.40;141.90;;;;;;;;;;4961351;28;20610;-50
2022/12/30 11:25:52;;;;;;;492.07;130.37;;;;;;;;;;4970109;28;20225;-50
2022/12/30 11:28:23;;;;;;;517.87;133.07;;;;;;;;;;4964837;28;20189;-50
2022/12/30 11:30:55;;;;;;;545.80;148.80;;;;;;;;;;4959463;28;20298;-50
2022/12/30 11:33:29;;;;;;;546.10;154.13;;;;;;;;;;4972107;28;21133;-50
2022/12/30 11:36:10;;;;;;;561.93;149.67;;;;;;;;;;4961727;28;20599;-50
2022/12/30 11:38:37;;;;;;;545.27;139.07;;;;;;;;;;4956795;28;20218;-50
2022/12/30 11:41:18;;;;;;;638.27;181.73;;;;;;;;;;4939560;28;20295;-50
2022/12/30 11:43:50;;;;;;;527.57;140.40;;;;;;;;;;4950283;28;21383;-50
2022/12/30 11:46:23;;;;;;;512.67;134.73;;;;;;;;;;4952402;28;20192;-50
2022/12/30 11:48:57;;;;;;;627.10;170.27;;;;;;;;;;4944330;28;20247;-50
2022/12/30 11:51:24;;;;;;;658.60;193.17;;;;;;;;;;4934401;28;20327;-50
2022/12/30 11:54:01;;;;;;;545.90;144.57;;;;;;;;;;4944762;28;20324;-50
2022/12/30 11:56:27;;;;;;;777.30;242.07;;;;;;;;;;4930557;28;20216;-50
2022/12/30 11:58:54;;;;;;;608.57;176.37;;;;;;;;;;4944895;28;20931;-52
2022/12/30 12:01:20;;;;;;;623.33;182.87;;;;;;;;;;4943608;28;20205;-53
2022/12/30 12:03:54;;;;;;;609.37;179.77;;;;;;;;;;4934192;28;20308;-53
2022/12/30 12:06:20;;;;;;;566.33;161.53;;;;;;;;;;4945822;28;20311;-52
2022/12/30 12:08:49;;;;;;;583.23;167.63;;;;;;;;;;4957629;28;20328;-54
2022/12/30 12:11:18;;;;;;;586.23;180.00;;;;;;;;;;4945555;28;20709;-50
2022/12/30 12:13:58;;;;;;;559.07;156.87;;;;;;;;;;4938436;28;20193;-50
2022/12/30 12:16:33;;;;;;;505.97;129.13;;;;;;;;;;4953204;28;20192;-50
2022/12/30 12:19:16;;;;;;;485.33;136.37;;;;;;;;;;4952005;28;20227;-50
2022/12/30 12:21:43;;;;;;;438.13;117.33;;;;;;;;;;4950896;28;20259;-50
2022/12/30 12:24:27;;;;;;;475.40;126.83;;;;;;;;;;4946344;28;20232;-50
2022/12/30 12:27:05;;;;;;;611.87;171.77;;;;;;;;;;4943802;28;20217;-49
2022/12/30 12:29:31;;;;;;;563.40;159.83;;;;;;;;;;4948308;28;20217;-50
2022/12/30 12:31:57;;;;;;;467.70;132.33;;;;;;;;;;4951307;28;20221;-50
2022/12/30 12:34:35;;;;;;;548.73;160.97;;;;;;;;;;4946912;28;20861;-50
2022/12/30 12:37:21;;;;;;;483.00;147.37;;;;;;;;;;4935725;28;20669;-50
2022/12/30 12:39:58;;;;;;;477.03;135.20;;;;;;;;;;4956563;28;20240;-50
2022/12/30 12:42:48;;;;;;;538.37;160.13;;;;;;;;;;4964725;28;20446;-50
2022/12/30 12:45:27;;;;;;;596.30;186.47;;;;;;;;;;4938539;28;21055;-50
2022/12/30 12:48:00;;;;;;;508.80;150.03;;;;;;;;;;4947983;28;21024;-50
2022/12/30 12:50:33;;;;;;;488.60;157.80;;;;;;;;;;4951330;28;20268;-50
2022/12/30 12:53:02;;;;;;;654.35;205.80;;;;;;;;;;4939652;28;20224;-50
2022/12/30 12:55:31;;;;;;;562.40;166.57;;;;;;;;;;4938909;28;20276;-51
2022/12/30 12:58:16;;;;;;;567.40;166.77;;;;;;;;;;4939229;28;20221;-51
2022/12/30 13:00:45;;;;;;;527.73;153.63;;;;;;;;;;4945162;28;20951;-51
2022/12/30 13:03:23;;;;;;;629.07;178.47;;;;;;;;;;4945634;28;20261;-51
2022/12/30 13:06:12;;;;;;;576.50;163.83;;;;;;;;;;4944138;28;20639;-49
2022/12/30 13:08:57;;;;;;;615.47;179.93;;;;;;;;;;4942685;28;20297;-50
2022/12/30 13:11:26;;;;;;;535.87;155.00;;;;;;;;;;4937990;28;20302;-49
2022/12/30 13:14:03;;;;;;;598.97;176.23;;;;;;;;;;4933725;28;21191;-49
2022/12/30 13:16:32;;;;;;;522.50;158.70;;;;;;;;;;4930936;28;20335;-49
2022/12/30 13:19:00;;;;;;;540.60;165.37;;;;;;;;;;4941281;28;20295;-48
2022/12/30 13:21:27;;;;;;;567.30;173.80;;;;;;;;;;4935973;28;20317;-51
2022/12/30 13:24:05;;;;;;;631.57;185.77;;;;;;;;;;4953263;28;20206;-49
2022/12/30 13:26:33;;;;;;;504.03;164.20;;;;;;;;;;4947306;28;20232;-49
2022/12/30 13:29:00;;;;;;;621.17;186.30;;;;;;;;;;4937092;28;20222;-50
2022/12/30 13:31:31;;;;;;;560.57;169.10;;;;;;;;;;4941778;28;20291;-48
2022/12/30 13:33:57;;;;;;;559.60;168.83;;;;;;;;;;4943493;28;20214;-48
2022/12/30 13:36:39;;;;;;;568.53;169.13;;;;;;;;;;4943425;28;20228;-48
2022/12/30 13:39:05;;;;;;;488.67;147.03;;;;;;;;;;4949500;28;20258;-48
2022/12/30 13:41:46;;;;;;;602.43;178.97;;;;;;;;;;4942761;28;20311;-49
2022/12/30 13:44:15;;;;;;;572.63;163.37;;;;;;;;;;4946974;28;20794;-48
2022/12/30 13:46:46;;;;;;;510.57;146.90;;;;;;;;;;4950947;28;20204;-49
2022/12/30 13:49:19;;;;;;;551.27;161.83;;;;;;;;;;4949719;28;20184;-48
2022/12/30 13:52:18;;;;;;;502.67;148.20;;;;;;;;;;4948804;28;20360;-49
2022/12/30 13:54:49;;;;;;;504.87;130.10;;;;;;;;;;4970882;28;20240;-48
2022/12/30 13:57:26;;;;;;;600.93;168.90;;;;;;;;;;4955503;28;20225;-49
2022/12/30 14:00:07;;;;;;;564.37;154.83;;;;;;;;;;4966372;28;20574;-48
2022/12/30 14:02:35;;;;;;;591.20;155.77;;;;;;;;;;4969391;28;20236;-48
2022/12/30 14:05:02;;;;;;;547.70;142.63;;;;;;;;;;4958661;28;20687;-48
2022/12/30 14:07:43;;;;;;;610.23;162.00;;;;;;;;;;4961247;28;20188;-49
2022/12/30 14:10:15;;;;;;;492.43;127.60;;;;;;;;;;4956943;28;20325;-49
2022/12/30 14:12:43;;;;;;;480.37;122.83;;;;;;;;;;4965181;28;20327;-48
2022/12/30 14:15:28;;;;;;;543.90;143.93;;;;;;;;;;4965094;28;20857;-48
2022/12/30 14:17:54;;;;;;;605.00;159.90;;;;;;;;;;4942555;28;20232;-49
2022/12/30 14:20:24;;;;;;;538.17;141.47;;;;;;;;;;4948713;28;20768;-49
2022/12/30 14:22:50;;;;;;;637.60;173.50;;;;;;;;;;4958535;28;20374;-48
2022/12/30 14:25:31;;;;;;;562.83;143.27;;;;;;;;;;4965057;28;20787;-48
2022/12/30 14:28:20;;;;;;;633.47;172.73;;;;;;;;;;4955982;28;20550;-49
2022/12/30 14:30:48;;;;;;;552.43;143.97;;;;;;;;;;4963783;28;20210;-49
2022/12/30 14:33:14;;;;;;;599.50;158.43;;;;;;;;;;4961147;28;21002;-48
2022/12/30 14:35:52;;;;;;;580.63;153.77;;;;;;;;;;4944668;28;20520;-48
2022/12/30 14:38:21;;;;;;;559.77;144.30;;;;;;;;;;4946709;28;20275;-48
2022/12/30 14:40:55;;;;;;;537.67;143.10;;;;;;;;;;4955732;28;20297;-47
2022/12/30 14:43:21;;;;;;;601.77;164.50;;;;;;;;;;4961347;28;20221;-54
2022/12/30 14:45:47;;;;;;;599.97;170.03;;;;;;;;;;4946009;28;20206;-53
2022/12/30 14:48:33;;;;;;;561.13;141.87;;;;;;;;;;4943609;28;20237;-56
2022/12/30 14:51:03;;;;;;;562.70;140.20;;;;;;;;;;4966719;28;20235;-56
2022/12/30 14:53:29;;;;;;;519.80;131.33;;;;;;;;;;4950415;28;20217;-53
2022/12/30 14:55:55;;;;;;;603.07;154.57;;;;;;;;;;4953229;28;20692;-54
2022/12/30 14:58:22;;;;;;;547.37;139.80;;;;;;;;;;4950241;28;20732;-55
2022/12/30 15:00:49;;;;;;;530.10;131.57;;;;;;;;;;4970415;28;20240;-55
2022/12/30 15:03:17;;;;;;;590.13;154.93;;;;;;;;;;4952683;28;20650;-53
2022/12/30 15:05:51;;;;;;;599.53;156.77;;;;;;;;;;4942374;28;20735;-55
2022/12/30 15:08:18;;;;;;;507.10;128.77;;;;;;;;;;4976106;28;20212;-53